sensor_id;sensor_type;location;lat;lon;timestamp;P1;durP1;ratioP1;P2;durP2;ratioP2
60372;SDS011;46216;52.220;5.134;2023-09-30T00:02:15;14.65;;;6.40;;
60372;SDS011;46216;52.220;5.134;2023-09-30T00:04:41;12.65;;;6.30;;
60372;SDS011;46216;52.220;5.134;2023-09-30T00:07:06;12.48;;;6.50;;
60372;SDS011;46216;52.220;5.134;2023-09-30T00:09:32;11.43;;;6.07;;
60372;SDS011;46216;52.220;5.134;2023-09-30T00:11:58;15.23;;;6.55;;
60372;SDS011;46216;52.220;5.134;2023-09-30T00:14:24;15.52;;;6.75;;
60372;SDS011;46216;52.220;5.134;2023-09-30T00:16:50;14.57;;;6.40;;
60372;SDS011;46216;52.220;5.134;2023-09-30T00:19:16;15.23;;;6.22;;
60372;SDS011;46216;52.220;5.134;2023-09-30T00:21:41;13.65;;;7.20;;
60372;SDS011;46216;52.220;5.134;2023-09-30T00:24:07;14.77;;;6.15;;
60372;SDS011;46216;52.220;5.134;2023-09-30T00:26:33;14.18;;;7.10;;
60372;SDS011;46216;52.220;5.134;2023-09-30T00:28:58;14.70;;;6.85;;
60372;SDS011;46216;52.220;5.134;2023-09-30T00:31:24;15.20;;;7.95;;
60372;SDS011;46216;52.220;5.134;2023-09-30T00:33:49;15.95;;;7.68;;
60372;SDS011;46216;52.220;5.134;2023-09-30T00:36:15;14.88;;;7.40;;
60372;SDS011;46216;52.220;5.134;2023-09-30T00:38:40;13.57;;;7.18;;
60372;SDS011;46216;52.220;5.134;2023-09-30T00:41:06;16.45;;;7.97;;
60372;SDS011;46216;52.220;5.134;2023-09-30T00:43:32;17.63;;;7.50;;
60372;SDS011;46216;52.220;5.134;2023-09-30T00:46:05;13.90;;;7.63;;
60372;SDS011;46216;52.220;5.134;2023-09-30T00:48:39;14.82;;;7.45;;
60372;SDS011;46216;52.220;5.134;2023-09-30T00:51:05;13.82;;;7.05;;
60372;SDS011;46216;52.220;5.134;2023-09-30T00:53:31;14.60;;;7.15;;
60372;SDS011;46216;52.220;5.134;2023-09-30T00:55:57;16.73;;;7.55;;
60372;SDS011;46216;52.220;5.134;2023-09-30T00:58:25;13.32;;;7.35;;
60372;SDS011;46216;52.220;5.134;2023-09-30T01:00:53;14.07;;;7.22;;
60372;SDS011;46216;52.220;5.134;2023-09-30T01:03:21;16.58;;;8.25;;
60372;SDS011;46216;52.220;5.134;2023-09-30T01:05:47;19.52;;;8.15;;
60372;SDS011;46216;52.220;5.134;2023-09-30T01:08:14;14.65;;;7.90;;
60372;SDS011;46216;52.220;5.134;2023-09-30T01:10:41;12.85;;;7.53;;
60372;SDS011;46216;52.220;5.134;2023-09-30T01:13:06;13.43;;;7.13;;
60372;SDS011;46216;52.220;5.134;2023-09-30T01:15:32;14.52;;;7.25;;
60372;SDS011;46216;52.220;5.134;2023-09-30T01:17:57;12.93;;;7.18;;
60372;SDS011;46216;52.220;5.134;2023-09-30T01:20:23;12.80;;;7.57;;
60372;SDS011;46216;52.220;5.134;2023-09-30T01:22:48;12.85;;;7.65;;
60372;SDS011;46216;52.220;5.134;2023-09-30T01:25:14;16.13;;;7.53;;
60372;SDS011;46216;52.220;5.134;2023-09-30T01:27:39;12.75;;;6.95;;
60372;SDS011;46216;52.220;5.134;2023-09-30T01:30:05;14.07;;;7.00;;
60372;SDS011;46216;52.220;5.134;2023-09-30T01:32:31;11.60;;;7.25;;
60372;SDS011;46216;52.220;5.134;2023-09-30T01:34:56;12.63;;;7.30;;
60372;SDS011;46216;52.220;5.134;2023-09-30T01:37:21;14.90;;;7.53;;
60372;SDS011;46216;52.220;5.134;2023-09-30T01:39:47;12.93;;;6.82;;
60372;SDS011;46216;52.220;5.134;2023-09-30T01:42:15;15.75;;;7.85;;
60372;SDS011;46216;52.220;5.134;2023-09-30T01:44:40;13.18;;;7.47;;
60372;SDS011;46216;52.220;5.134;2023-09-30T01:47:06;15.18;;;7.70;;
60372;SDS011;46216;52.220;5.134;2023-09-30T01:49:31;15.43;;;7.93;;
60372;SDS011;46216;52.220;5.134;2023-09-30T01:51:56;13.70;;;7.40;;
60372;SDS011;46216;52.220;5.134;2023-09-30T01:54:22;13.52;;;7.22;;
60372;SDS011;46216;52.220;5.134;2023-09-30T01:56:47;12.48;;;7.35;;
60372;SDS011;46216;52.220;5.134;2023-09-30T01:59:12;16.48;;;7.70;;
60372;SDS011;46216;52.220;5.134;2023-09-30T02:01:38;19.55;;;8.25;;
60372;SDS011;46216;52.220;5.134;2023-09-30T02:04:03;16.95;;;8.10;;
60372;SDS011;46216;52.220;5.134;2023-09-30T02:06:31;15.73;;;7.63;;
60372;SDS011;46216;52.220;5.134;2023-09-30T02:08:56;14.02;;;7.55;;
60372;SDS011;46216;52.220;5.134;2023-09-30T02:11:23;14.80;;;7.72;;
60372;SDS011;46216;52.220;5.134;2023-09-30T02:13:48;12.75;;;8.05;;
60372;SDS011;46216;52.220;5.134;2023-09-30T02:16:13;12.50;;;7.63;;
60372;SDS011;46216;52.220;5.134;2023-09-30T02:18:39;15.70;;;8.25;;
60372;SDS011;46216;52.220;5.134;2023-09-30T02:21:06;14.63;;;8.88;;
60372;SDS011;46216;52.220;5.134;2023-09-30T02:23:34;13.65;;;9.40;;
60372;SDS011;46216;52.220;5.134;2023-09-30T02:25:59;16.80;;;9.48;;
60372;SDS011;46216;52.220;5.134;2023-09-30T02:28:25;15.18;;;9.10;;
60372;SDS011;46216;52.220;5.134;2023-09-30T02:30:50;14.73;;;9.30;;
60372;SDS011;46216;52.220;5.134;2023-09-30T02:33:15;19.45;;;10.40;;
60372;SDS011;46216;52.220;5.134;2023-09-30T02:35:45;16.58;;;10.18;;
60372;SDS011;46216;52.220;5.134;2023-09-30T02:38:11;19.15;;;10.27;;
60372;SDS011;46216;52.220;5.134;2023-09-30T02:40:36;17.35;;;10.77;;
60372;SDS011;46216;52.220;5.134;2023-09-30T02:43:03;19.83;;;11.32;;
60372;SDS011;46216;52.220;5.134;2023-09-30T02:45:29;18.02;;;11.30;;
60372;SDS011;46216;52.220;5.134;2023-09-30T02:47:54;17.70;;;10.95;;
60372;SDS011;46216;52.220;5.134;2023-09-30T02:50:20;19.90;;;11.98;;
60372;SDS011;46216;52.220;5.134;2023-09-30T02:52:46;18.30;;;10.93;;
60372;SDS011;46216;52.220;5.134;2023-09-30T02:55:11;18.10;;;11.07;;
60372;SDS011;46216;52.220;5.134;2023-09-30T02:57:39;19.58;;;11.38;;
60372;SDS011;46216;52.220;5.134;2023-09-30T03:00:05;15.77;;;11.50;;
60372;SDS011;46216;52.220;5.134;2023-09-30T03:02:40;20.40;;;12.20;;
60372;SDS011;46216;52.220;5.134;2023-09-30T03:05:06;20.38;;;11.85;;
60372;SDS011;46216;52.220;5.134;2023-09-30T03:07:32;20.90;;;11.70;;
60372;SDS011;46216;52.220;5.134;2023-09-30T03:09:58;17.00;;;11.35;;
60372;SDS011;46216;52.220;5.134;2023-09-30T03:12:25;19.15;;;12.25;;
60372;SDS011;46216;52.220;5.134;2023-09-30T03:14:50;19.38;;;12.00;;
60372;SDS011;46216;52.220;5.134;2023-09-30T03:17:16;17.38;;;11.65;;
60372;SDS011;46216;52.220;5.134;2023-09-30T03:19:42;20.35;;;11.88;;
60372;SDS011;46216;52.220;5.134;2023-09-30T03:22:08;19.80;;;11.93;;
60372;SDS011;46216;52.220;5.134;2023-09-30T03:24:36;18.48;;;12.18;;
60372;SDS011;46216;52.220;5.134;2023-09-30T03:27:03;20.60;;;12.40;;
60372;SDS011;46216;52.220;5.134;2023-09-30T03:29:29;18.63;;;12.00;;
60372;SDS011;46216;52.220;5.134;2023-09-30T03:31:54;16.25;;;11.85;;
60372;SDS011;46216;52.220;5.134;2023-09-30T03:34:19;20.80;;;12.60;;
60372;SDS011;46216;52.220;5.134;2023-09-30T03:36:45;14.75;;;11.52;;
60372;SDS011;46216;52.220;5.134;2023-09-30T03:39:10;18.00;;;12.18;;
60372;SDS011;46216;52.220;5.134;2023-09-30T03:41:40;19.65;;;12.55;;
60372;SDS011;46216;52.220;5.134;2023-09-30T03:44:05;16.77;;;12.20;;
60372;SDS011;46216;52.220;5.134;2023-09-30T03:46:31;19.58;;;12.30;;
60372;SDS011;46216;52.220;5.134;2023-09-30T03:48:56;15.70;;;12.00;;
60372;SDS011;46216;52.220;5.134;2023-09-30T03:51:22;20.05;;;12.65;;
60372;SDS011;46216;52.220;5.134;2023-09-30T03:53:50;20.30;;;12.90;;
60372;SDS011;46216;52.220;5.134;2023-09-30T03:56:16;21.83;;;12.98;;
60372;SDS011;46216;52.220;5.134;2023-09-30T03:58:43;21.70;;;13.43;;
60372;SDS011;46216;52.220;5.134;2023-09-30T04:01:10;22.58;;;13.57;;
60372;SDS011;46216;52.220;5.134;2023-09-30T04:03:38;18.80;;;12.85;;
60372;SDS011;46216;52.220;5.134;2023-09-30T04:06:05;21.67;;;13.30;;
60372;SDS011;46216;52.220;5.134;2023-09-30T04:08:32;23.60;;;13.25;;
60372;SDS011;46216;52.220;5.134;2023-09-30T04:10:58;25.08;;;13.63;;
60372;SDS011;46216;52.220;5.134;2023-09-30T04:13:24;19.80;;;13.07;;
60372;SDS011;46216;52.220;5.134;2023-09-30T04:15:50;20.88;;;13.23;;
60372;SDS011;46216;52.220;5.134;2023-09-30T04:18:16;24.60;;;14.30;;
60372;SDS011;46216;52.220;5.134;2023-09-30T04:20:41;23.23;;;14.70;;
60372;SDS011;46216;52.220;5.134;2023-09-30T04:23:07;23.92;;;14.88;;
60372;SDS011;46216;52.220;5.134;2023-09-30T04:25:34;23.40;;;15.63;;
60372;SDS011;46216;52.220;5.134;2023-09-30T04:28:00;22.83;;;15.13;;
60372;SDS011;46216;52.220;5.134;2023-09-30T04:30:28;23.35;;;14.85;;
60372;SDS011;46216;52.220;5.134;2023-09-30T04:32:54;24.75;;;15.50;;
60372;SDS011;46216;52.220;5.134;2023-09-30T04:35:20;24.95;;;15.90;;
60372;SDS011;46216;52.220;5.134;2023-09-30T04:37:45;28.02;;;15.77;;
60372;SDS011;46216;52.220;5.134;2023-09-30T04:40:10;29.98;;;16.85;;
60372;SDS011;46216;52.220;5.134;2023-09-30T04:42:44;26.40;;;16.48;;
60372;SDS011;46216;52.220;5.134;2023-09-30T04:45:11;25.30;;;16.23;;
60372;SDS011;46216;52.220;5.134;2023-09-30T04:47:37;26.45;;;17.17;;
60372;SDS011;46216;52.220;5.134;2023-09-30T04:50:05;23.38;;;16.45;;
60372;SDS011;46216;52.220;5.134;2023-09-30T04:52:32;27.00;;;17.25;;
60372;SDS011;46216;52.220;5.134;2023-09-30T04:54:58;24.15;;;15.80;;
60372;SDS011;46216;52.220;5.134;2023-09-30T04:57:25;27.95;;;16.33;;
60372;SDS011;46216;52.220;5.134;2023-09-30T04:59:51;28.60;;;16.60;;
60372;SDS011;46216;52.220;5.134;2023-09-30T05:02:16;24.65;;;16.55;;
60372;SDS011;46216;52.220;5.134;2023-09-30T05:04:41;28.83;;;17.33;;
60372;SDS011;46216;52.220;5.134;2023-09-30T05:07:09;28.13;;;16.45;;
60372;SDS011;46216;52.220;5.134;2023-09-30T05:09:35;29.92;;;17.45;;
60372;SDS011;46216;52.220;5.134;2023-09-30T05:12:01;27.45;;;17.15;;
60372;SDS011;46216;52.220;5.134;2023-09-30T05:14:26;27.83;;;17.83;;
60372;SDS011;46216;52.220;5.134;2023-09-30T05:16:54;24.10;;;18.13;;
60372;SDS011;46216;52.220;5.134;2023-09-30T05:19:19;30.40;;;17.58;;
60372;SDS011;46216;52.220;5.134;2023-09-30T05:21:45;24.42;;;16.67;;
60372;SDS011;46216;52.220;5.134;2023-09-30T05:24:11;28.75;;;17.98;;
60372;SDS011;46216;52.220;5.134;2023-09-30T05:26:36;32.33;;;18.05;;
60372;SDS011;46216;52.220;5.134;2023-09-30T05:29:01;27.17;;;17.05;;
60372;SDS011;46216;52.220;5.134;2023-09-30T05:31:28;29.48;;;17.80;;
60372;SDS011;46216;52.220;5.134;2023-09-30T05:33:54;23.48;;;17.42;;
60372;SDS011;46216;52.220;5.134;2023-09-30T05:36:20;31.80;;;18.27;;
60372;SDS011;46216;52.220;5.134;2023-09-30T05:38:46;26.90;;;18.23;;
60372;SDS011;46216;52.220;5.134;2023-09-30T05:41:13;26.77;;;17.65;;
60372;SDS011;46216;52.220;5.134;2023-09-30T05:43:39;26.13;;;17.52;;
60372;SDS011;46216;52.220;5.134;2023-09-30T05:46:05;27.10;;;18.00;;
60372;SDS011;46216;52.220;5.134;2023-09-30T05:48:31;29.48;;;18.23;;
60372;SDS011;46216;52.220;5.134;2023-09-30T05:50:58;29.75;;;18.10;;
60372;SDS011;46216;52.220;5.134;2023-09-30T05:53:23;27.52;;;17.83;;
60372;SDS011;46216;52.220;5.134;2023-09-30T05:55:50;28.30;;;17.83;;
60372;SDS011;46216;52.220;5.134;2023-09-30T05:58:15;32.45;;;18.23;;
60372;SDS011;46216;52.220;5.134;2023-09-30T06:00:41;28.20;;;18.42;;
60372;SDS011;46216;52.220;5.134;2023-09-30T06:03:08;28.80;;;17.40;;
60372;SDS011;46216;52.220;5.134;2023-09-30T06:05:38;26.25;;;16.73;;
60372;SDS011;46216;52.220;5.134;2023-09-30T06:08:08;29.70;;;17.75;;
60372;SDS011;46216;52.220;5.134;2023-09-30T06:10:42;24.45;;;17.33;;
60372;SDS011;46216;52.220;5.134;2023-09-30T06:13:08;22.60;;;16.23;;
60372;SDS011;46216;52.220;5.134;2023-09-30T06:15:36;22.42;;;16.08;;
60372;SDS011;46216;52.220;5.134;2023-09-30T06:18:05;24.45;;;17.10;;
60372;SDS011;46216;52.220;5.134;2023-09-30T06:20:31;26.98;;;17.15;;
60372;SDS011;46216;52.220;5.134;2023-09-30T06:22:56;30.52;;;18.55;;
60372;SDS011;46216;52.220;5.134;2023-09-30T06:25:22;29.85;;;18.00;;
60372;SDS011;46216;52.220;5.134;2023-09-30T06:27:49;27.13;;;17.95;;
60372;SDS011;46216;52.220;5.134;2023-09-30T06:30:15;30.52;;;19.13;;
60372;SDS011;46216;52.220;5.134;2023-09-30T06:32:41;29.38;;;18.55;;
60372;SDS011;46216;52.220;5.134;2023-09-30T06:35:07;30.80;;;19.45;;
60372;SDS011;46216;52.220;5.134;2023-09-30T06:37:38;31.50;;;18.83;;
60372;SDS011;46216;52.220;5.134;2023-09-30T06:40:08;28.90;;;19.17;;
60372;SDS011;46216;52.220;5.134;2023-09-30T06:42:36;27.15;;;19.83;;
60372;SDS011;46216;52.220;5.134;2023-09-30T06:45:02;28.50;;;19.70;;
60372;SDS011;46216;52.220;5.134;2023-09-30T06:47:34;26.85;;;19.27;;
60372;SDS011;46216;52.220;5.134;2023-09-30T06:50:04;32.20;;;20.77;;
60372;SDS011;46216;52.220;5.134;2023-09-30T06:52:33;30.42;;;19.33;;
60372;SDS011;46216;52.220;5.134;2023-09-30T06:55:03;29.77;;;19.38;;
60372;SDS011;46216;52.220;5.134;2023-09-30T06:57:30;28.88;;;20.83;;
60372;SDS011;46216;52.220;5.134;2023-09-30T06:59:59;32.28;;;21.38;;
60372;SDS011;46216;52.220;5.134;2023-09-30T07:02:24;33.08;;;21.13;;
60372;SDS011;46216;52.220;5.134;2023-09-30T07:04:50;32.53;;;20.85;;
60372;SDS011;46216;52.220;5.134;2023-09-30T07:07:15;28.30;;;20.55;;
60372;SDS011;46216;52.220;5.134;2023-09-30T07:09:43;31.55;;;20.58;;
60372;SDS011;46216;52.220;5.134;2023-09-30T07:12:09;30.30;;;20.98;;
60372;SDS011;46216;52.220;5.134;2023-09-30T07:14:34;28.70;;;20.05;;
60372;SDS011;46216;52.220;5.134;2023-09-30T07:17:00;29.48;;;19.35;;
60372;SDS011;46216;52.220;5.134;2023-09-30T07:19:25;32.83;;;20.38;;
60372;SDS011;46216;52.220;5.134;2023-09-30T07:21:50;30.63;;;19.10;;
60372;SDS011;46216;52.220;5.134;2023-09-30T07:24:16;27.17;;;18.92;;
60372;SDS011;46216;52.220;5.134;2023-09-30T07:26:41;27.58;;;19.95;;
60372;SDS011;46216;52.220;5.134;2023-09-30T07:29:06;31.75;;;19.58;;
60372;SDS011;46216;52.220;5.134;2023-09-30T07:31:36;31.52;;;19.63;;
60372;SDS011;46216;52.220;5.134;2023-09-30T07:34:03;30.00;;;20.13;;
60372;SDS011;46216;52.220;5.134;2023-09-30T07:36:28;27.10;;;19.45;;
60372;SDS011;46216;52.220;5.134;2023-09-30T07:38:53;27.65;;;20.38;;
60372;SDS011;46216;52.220;5.134;2023-09-30T07:41:19;31.75;;;22.20;;
60372;SDS011;46216;52.220;5.134;2023-09-30T07:43:45;31.63;;;21.15;;
60372;SDS011;46216;52.220;5.134;2023-09-30T07:46:10;36.88;;;21.63;;
60372;SDS011;46216;52.220;5.134;2023-09-30T07:48:35;31.00;;;20.88;;
60372;SDS011;46216;52.220;5.134;2023-09-30T07:51:01;30.48;;;20.77;;
60372;SDS011;46216;52.220;5.134;2023-09-30T07:53:27;29.65;;;20.48;;
60372;SDS011;46216;52.220;5.134;2023-09-30T07:55:53;29.52;;;21.00;;
60372;SDS011;46216;52.220;5.134;2023-09-30T07:58:19;28.50;;;20.13;;
60372;SDS011;46216;52.220;5.134;2023-09-30T08:00:45;29.65;;;19.90;;
60372;SDS011;46216;52.220;5.134;2023-09-30T08:03:10;24.48;;;18.38;;
60372;SDS011;46216;52.220;5.134;2023-09-30T08:05:36;26.95;;;18.20;;
60372;SDS011;46216;52.220;5.134;2023-09-30T08:08:02;28.88;;;18.00;;
60372;SDS011;46216;52.220;5.134;2023-09-30T08:10:28;26.38;;;17.67;;
60372;SDS011;46216;52.220;5.134;2023-09-30T08:12:55;25.02;;;17.30;;
60372;SDS011;46216;52.220;5.134;2023-09-30T08:15:22;22.73;;;17.30;;
60372;SDS011;46216;52.220;5.134;2023-09-30T08:17:48;23.95;;;16.85;;
60372;SDS011;46216;52.220;5.134;2023-09-30T08:20:13;27.98;;;17.10;;
60372;SDS011;46216;52.220;5.134;2023-09-30T08:22:39;25.40;;;16.90;;
60372;SDS011;46216;52.220;5.134;2023-09-30T08:25:06;23.63;;;16.13;;
60372;SDS011;46216;52.220;5.134;2023-09-30T08:27:32;23.02;;;15.65;;
60372;SDS011;46216;52.220;5.134;2023-09-30T08:29:57;21.70;;;15.85;;
60372;SDS011;46216;52.220;5.134;2023-09-30T08:32:22;22.85;;;15.40;;
60372;SDS011;46216;52.220;5.134;2023-09-30T08:34:48;21.05;;;15.57;;
60372;SDS011;46216;52.220;5.134;2023-09-30T08:37:14;19.98;;;15.00;;
60372;SDS011;46216;52.220;5.134;2023-09-30T08:39:39;21.90;;;15.20;;
60372;SDS011;46216;52.220;5.134;2023-09-30T08:42:07;22.45;;;15.23;;
60372;SDS011;46216;52.220;5.134;2023-09-30T08:44:37;25.20;;;15.27;;
60372;SDS011;46216;52.220;5.134;2023-09-30T08:47:04;20.77;;;14.75;;
60372;SDS011;46216;52.220;5.134;2023-09-30T08:49:32;22.65;;;14.63;;
60372;SDS011;46216;52.220;5.134;2023-09-30T08:52:02;23.48;;;15.82;;
60372;SDS011;46216;52.220;5.134;2023-09-30T08:54:29;19.15;;;14.80;;
60372;SDS011;46216;52.220;5.134;2023-09-30T08:56:56;22.58;;;14.60;;
60372;SDS011;46216;52.220;5.134;2023-09-30T08:59:21;19.98;;;14.00;;
60372;SDS011;46216;52.220;5.134;2023-09-30T09:01:49;20.95;;;14.15;;
60372;SDS011;46216;52.220;5.134;2023-09-30T09:04:15;20.27;;;14.10;;
60372;SDS011;46216;52.220;5.134;2023-09-30T09:06:40;20.73;;;13.80;;
60372;SDS011;46216;52.220;5.134;2023-09-30T09:09:12;19.27;;;12.75;;
60372;SDS011;46216;52.220;5.134;2023-09-30T09:11:39;20.27;;;13.60;;
60372;SDS011;46216;52.220;5.134;2023-09-30T09:14:05;19.60;;;13.45;;
60372;SDS011;46216;52.220;5.134;2023-09-30T09:16:30;23.25;;;14.10;;
60372;SDS011;46216;52.220;5.134;2023-09-30T09:18:55;19.08;;;12.82;;
60372;SDS011;46216;52.220;5.134;2023-09-30T09:21:22;20.08;;;13.63;;
60372;SDS011;46216;52.220;5.134;2023-09-30T09:23:49;19.40;;;13.60;;
60372;SDS011;46216;52.220;5.134;2023-09-30T09:26:28;22.10;;;14.05;;
60372;SDS011;46216;52.220;5.134;2023-09-30T09:29:02;18.90;;;13.23;;
60372;SDS011;46216;52.220;5.134;2023-09-30T09:31:31;16.85;;;12.52;;
60372;SDS011;46216;52.220;5.134;2023-09-30T09:33:59;18.45;;;11.32;;
60372;SDS011;46216;52.220;5.134;2023-09-30T09:36:44;15.02;;;10.32;;
60372;SDS011;46216;52.220;5.134;2023-09-30T09:39:11;17.45;;;11.35;;
60372;SDS011;46216;52.220;5.134;2023-09-30T09:41:53;17.13;;;10.77;;
60372;SDS011;46216;52.220;5.134;2023-09-30T09:44:19;18.38;;;10.32;;
60372;SDS011;46216;52.220;5.134;2023-09-30T09:46:47;16.30;;;9.93;;
60372;SDS011;46216;52.220;5.134;2023-09-30T09:49:14;16.15;;;9.52;;
60372;SDS011;46216;52.220;5.134;2023-09-30T09:51:43;13.98;;;9.05;;
60372;SDS011;46216;52.220;5.134;2023-09-30T09:54:11;15.65;;;9.32;;
60372;SDS011;46216;52.220;5.134;2023-09-30T09:56:37;21.20;;;9.70;;
60372;SDS011;46216;52.220;5.134;2023-09-30T09:59:04;14.77;;;9.32;;
60372;SDS011;46216;52.220;5.134;2023-09-30T10:01:32;12.40;;;8.70;;
60372;SDS011;46216;52.220;5.134;2023-09-30T10:03:58;16.00;;;8.63;;
60372;SDS011;46216;52.220;5.134;2023-09-30T10:06:24;12.55;;;6.57;;
60372;SDS011;46216;52.220;5.134;2023-09-30T10:08:49;9.02;;;5.00;;
60372;SDS011;46216;52.220;5.134;2023-09-30T10:11:17;11.13;;;4.97;;
60372;SDS011;46216;52.220;5.134;2023-09-30T10:13:53;12.00;;;5.50;;
60372;SDS011;46216;52.220;5.134;2023-09-30T10:19:13;12.57;;;6.15;;
60372;SDS011;46216;52.220;5.134;2023-09-30T10:21:40;14.13;;;5.65;;
60372;SDS011;46216;52.220;5.134;2023-09-30T10:24:56;9.55;;;4.57;;
60372;SDS011;46216;52.220;5.134;2023-09-30T10:35:15;11.18;;;4.65;;
60372;SDS011;46216;52.220;5.134;2023-09-30T10:37:44;11.80;;;4.82;;
60372;SDS011;46216;52.220;5.134;2023-09-30T10:40:10;10.32;;;5.13;;
60372;SDS011;46216;52.220;5.134;2023-09-30T10:42:51;12.25;;;5.18;;
60372;SDS011;46216;52.220;5.134;2023-09-30T10:51:09;9.98;;;4.57;;
60372;SDS011;46216;52.220;5.134;2023-09-30T10:53:46;11.20;;;4.90;;
60372;SDS011;46216;52.220;5.134;2023-09-30T10:56:12;7.78;;;4.30;;
60372;SDS011;46216;52.220;5.134;2023-09-30T10:58:46;10.15;;;4.40;;
60372;SDS011;46216;52.220;5.134;2023-09-30T11:01:16;8.75;;;4.28;;
60372;SDS011;46216;52.220;5.134;2023-09-30T11:03:49;9.25;;;4.38;;
60372;SDS011;46216;52.220;5.134;2023-09-30T11:06:21;12.50;;;4.90;;
60372;SDS011;46216;52.220;5.134;2023-09-30T11:11:59;10.57;;;4.82;;
60372;SDS011;46216;52.220;5.134;2023-09-30T11:14:20;10.77;;;4.72;;
60372;SDS011;46216;52.220;5.134;2023-09-30T11:16:56;7.68;;;3.85;;
60372;SDS011;46216;52.220;5.134;2023-09-30T11:19:27;9.68;;;3.50;;
60372;SDS011;46216;52.220;5.134;2023-09-30T11:21:58;9.43;;;3.40;;
60372;SDS011;46216;52.220;5.134;2023-09-30T11:24:24;6.85;;;3.30;;
60372;SDS011;46216;52.220;5.134;2023-09-30T11:26:53;12.98;;;3.50;;
60372;SDS011;46216;52.220;5.134;2023-09-30T11:29:20;7.30;;;3.17;;
60372;SDS011;46216;52.220;5.134;2023-09-30T11:31:47;6.57;;;3.30;;
60372;SDS011;46216;52.220;5.134;2023-09-30T11:34:13;7.35;;;3.00;;
60372;SDS011;46216;52.220;5.134;2023-09-30T11:36:46;8.18;;;2.90;;
60372;SDS011;46216;52.220;5.134;2023-09-30T11:39:22;11.27;;;2.90;;
60372;SDS011;46216;52.220;5.134;2023-09-30T11:41:49;8.35;;;2.97;;
60372;SDS011;46216;52.220;5.134;2023-09-30T11:44:15;11.02;;;2.92;;
60372;SDS011;46216;52.220;5.134;2023-09-30T11:46:48;5.47;;;3.03;;
60372;SDS011;46216;52.220;5.134;2023-09-30T11:49:23;9.77;;;3.20;;
60372;SDS011;46216;52.220;5.134;2023-09-30T11:51:49;9.00;;;2.95;;
60372;SDS011;46216;52.220;5.134;2023-09-30T11:54:14;10.73;;;3.40;;
60372;SDS011;46216;52.220;5.134;2023-09-30T11:56:40;7.95;;;3.20;;
60372;SDS011;46216;52.220;5.134;2023-09-30T11:59:05;7.65;;;3.67;;
60372;SDS011;46216;52.220;5.134;2023-09-30T12:01:31;9.63;;;3.75;;
60372;SDS011;46216;52.220;5.134;2023-09-30T12:03:57;10.25;;;3.80;;
60372;SDS011;46216;52.220;5.134;2023-09-30T12:06:26;8.75;;;3.47;;
60372;SDS011;46216;52.220;5.134;2023-09-30T12:08:51;10.88;;;3.95;;
60372;SDS011;46216;52.220;5.134;2023-09-30T12:11:20;10.30;;;3.80;;
60372;SDS011;46216;52.220;5.134;2023-09-30T12:13:45;9.68;;;4.40;;
60372;SDS011;46216;52.220;5.134;2023-09-30T12:16:13;8.13;;;3.63;;
60372;SDS011;46216;52.220;5.134;2023-09-30T12:18:39;11.63;;;3.58;;
60372;SDS011;46216;52.220;5.134;2023-09-30T12:21:06;7.90;;;3.30;;
60372;SDS011;46216;52.220;5.134;2023-09-30T12:23:33;7.72;;;3.20;;
60372;SDS011;46216;52.220;5.134;2023-09-30T12:25:58;7.45;;;2.75;;
60372;SDS011;46216;52.220;5.134;2023-09-30T12:28:23;10.13;;;3.33;;
60372;SDS011;46216;52.220;5.134;2023-09-30T12:30:49;7.18;;;3.25;;
60372;SDS011;46216;52.220;5.134;2023-09-30T12:33:14;7.40;;;3.25;;
60372;SDS011;46216;52.220;5.134;2023-09-30T12:35:40;10.85;;;3.65;;
60372;SDS011;46216;52.220;5.134;2023-09-30T12:38:08;9.00;;;3.75;;
60372;SDS011;46216;52.220;5.134;2023-09-30T12:40:33;8.65;;;2.85;;
60372;SDS011;46216;52.220;5.134;2023-09-30T12:42:59;7.68;;;2.70;;
60372;SDS011;46216;52.220;5.134;2023-09-30T12:45:24;7.28;;;2.53;;
60372;SDS011;46216;52.220;5.134;2023-09-30T12:47:49;6.40;;;2.28;;
60372;SDS011;46216;52.220;5.134;2023-09-30T12:50:17;6.60;;;2.47;;
60372;SDS011;46216;52.220;5.134;2023-09-30T12:52:42;6.32;;;2.35;;
60372;SDS011;46216;52.220;5.134;2023-09-30T12:55:08;6.95;;;2.20;;
60372;SDS011;46216;52.220;5.134;2023-09-30T12:57:34;7.90;;;2.35;;
60372;SDS011;46216;52.220;5.134;2023-09-30T13:00:00;9.57;;;3.58;;
60372;SDS011;46216;52.220;5.134;2023-09-30T13:02:25;8.40;;;2.65;;
60372;SDS011;46216;52.220;5.134;2023-09-30T13:04:50;9.23;;;2.47;;
60372;SDS011;46216;52.220;5.134;2023-09-30T13:07:16;8.43;;;2.55;;
60372;SDS011;46216;52.220;5.134;2023-09-30T13:09:41;11.93;;;2.90;;
60372;SDS011;46216;52.220;5.134;2023-09-30T13:12:07;7.85;;;2.55;;
60372;SDS011;46216;52.220;5.134;2023-09-30T13:14:33;8.45;;;3.08;;
60372;SDS011;46216;52.220;5.134;2023-09-30T13:16:59;8.35;;;3.10;;
60372;SDS011;46216;52.220;5.134;2023-09-30T13:19:24;7.05;;;2.50;;
60372;SDS011;46216;52.220;5.134;2023-09-30T13:21:50;8.38;;;3.40;;
60372;SDS011;46216;52.220;5.134;2023-09-30T13:24:18;9.50;;;3.03;;
60372;SDS011;46216;52.220;5.134;2023-09-30T13:26:43;6.65;;;3.10;;
60372;SDS011;46216;52.220;5.134;2023-09-30T13:29:09;7.15;;;3.05;;
60372;SDS011;46216;52.220;5.134;2023-09-30T13:31:36;9.23;;;3.00;;
60372;SDS011;46216;52.220;5.134;2023-09-30T13:34:03;8.75;;;3.33;;
60372;SDS011;46216;52.220;5.134;2023-09-30T13:36:29;9.73;;;3.13;;
60372;SDS011;46216;52.220;5.134;2023-09-30T13:38:55;11.23;;;3.63;;
60372;SDS011;46216;52.220;5.134;2023-09-30T13:41:20;7.70;;;3.38;;
60372;SDS011;46216;52.220;5.134;2023-09-30T13:43:46;9.80;;;3.92;;
60372;SDS011;46216;52.220;5.134;2023-09-30T13:46:11;13.02;;;3.50;;
60372;SDS011;46216;52.220;5.134;2023-09-30T13:48:37;8.43;;;3.42;;
60372;SDS011;46216;52.220;5.134;2023-09-30T13:51:03;7.80;;;3.40;;
60372;SDS011;46216;52.220;5.134;2023-09-30T13:53:33;8.27;;;3.47;;
60372;SDS011;46216;52.220;5.134;2023-09-30T13:55:58;9.60;;;3.70;;
60372;SDS011;46216;52.220;5.134;2023-09-30T13:58:24;8.50;;;3.50;;
60372;SDS011;46216;52.220;5.134;2023-09-30T14:00:50;9.88;;;3.10;;
60372;SDS011;46216;52.220;5.134;2023-09-30T14:03:18;9.48;;;3.45;;
60372;SDS011;46216;52.220;5.134;2023-09-30T14:05:47;8.73;;;3.22;;
60372;SDS011;46216;52.220;5.134;2023-09-30T14:08:15;7.78;;;3.38;;
60372;SDS011;46216;52.220;5.134;2023-09-30T14:10:41;5.82;;;3.40;;
60372;SDS011;46216;52.220;5.134;2023-09-30T14:13:08;9.13;;;3.20;;
60372;SDS011;46216;52.220;5.134;2023-09-30T14:15:33;9.27;;;3.67;;
60372;SDS011;46216;52.220;5.134;2023-09-30T14:17:59;6.93;;;3.58;;
60372;SDS011;46216;52.220;5.134;2023-09-30T14:20:25;8.57;;;3.00;;
60372;SDS011;46216;52.220;5.134;2023-09-30T14:22:51;7.70;;;3.40;;
60372;SDS011;46216;52.220;5.134;2023-09-30T14:25:17;8.20;;;3.58;;
60372;SDS011;46216;52.220;5.134;2023-09-30T14:27:42;7.82;;;3.45;;
60372;SDS011;46216;52.220;5.134;2023-09-30T14:30:08;9.93;;;4.00;;
60372;SDS011;46216;52.220;5.134;2023-09-30T14:32:34;10.05;;;3.90;;
60372;SDS011;46216;52.220;5.134;2023-09-30T14:34:59;8.18;;;3.75;;
60372;SDS011;46216;52.220;5.134;2023-09-30T14:37:24;11.20;;;3.78;;
60372;SDS011;46216;52.220;5.134;2023-09-30T14:39:50;7.60;;;3.78;;
60372;SDS011;46216;52.220;5.134;2023-09-30T14:42:15;8.57;;;3.60;;
60372;SDS011;46216;52.220;5.134;2023-09-30T14:44:41;9.40;;;3.90;;
60372;SDS011;46216;52.220;5.134;2023-09-30T14:47:07;8.65;;;3.38;;
60372;SDS011;46216;52.220;5.134;2023-09-30T14:49:33;8.70;;;3.70;;